Zim Vancouver — A8LK5 — position and weather

sailwx.info

Track history (hours):
 
Tides and Currents Weather Stations Pressure Air Temp Water Temp Dewpoint Dewpoint Depression Visibility Wind Speed Wind Dir Waves Ship Positions

Zim Vancouver

Last reported at 2017-Mar-25 13:23 UTC. Time now 2017-Mar-28 14:04 UTC.
Position N 46°14' E 030°55'.

Length 260 m; draft 10.9 m.

Type: Ship. MMSI: 636013214.

Date/timePositionNaut miles runAvg speedWind from/ knotsBaromVisibWave heightAir tempDewpointWater temp
2017-Mar-25 13:23N 46°14' E 030°55'1618.6
2017-Mar-25 12:32N 46°30' E 030°48'2 1.8
2017-Mar-25 11:32N 46°29' E 030°45'0 0.0
2017-Mar-25 10:33N 46°29' E 030°45'0 0.0
2017-Mar-25 09:33N 46°29' E 030°45'0 0.0
2017-Mar-25 08:33N 46°29' E 030°45'0 0.0
2017-Mar-25 07:34N 46°29' E 030°45'0 0.0
2017-Mar-25 06:33N 46°29' E 030°45'0 0.0
2017-Mar-25 05:33N 46°29' E 030°45'0 0.0
2017-Mar-25 04:34N 46°29' E 030°45'0 0.0
2017-Mar-25 03:33N 46°29' E 030°45'0 0.0
2017-Mar-25 02:33N 46°29' E 030°45'0 0.0
2017-Mar-25 01:33N 46°29' E 030°45'0 0.0
2017-Mar-25 00:33N 46°29' E 030°45'0 0.0
2017-Mar-24 23:34N 46°29' E 030°45'0 0.0
2017-Mar-24 22:32N 46°29' E 030°45'0 0.0
2017-Mar-24 21:33N 46°29' E 030°45'0 0.0
2017-Mar-24 20:33N 46°29' E 030°45'0 0.0
2017-Mar-24 19:33N 46°29' E 030°45'0 0.0
2017-Mar-24 18:33N 46°29' E 030°45'0 0.0
2017-Mar-24 17:34N 46°29' E 030°45'3 3.0
2017-Mar-24 16:33N 46°29' E 030°50'0 0.1
2017-Mar-24 15:34N 46°29' E 030°50'1 1.0
2017-Mar-24 14:33N 46°29' E 030°50'5518.5
2017-Mar-24 11:33N 45°45' E 031°40'25518.1
2017-Mar-23 21:27N 44°26' E 037°24'1920.9
2017-Mar-23 20:33N 44°35' E 037°47'8 8.4
2017-Mar-23 19:33N 44°44' E 037°47'0 0.0
2017-Mar-23 18:32N 44°44' E 037°47'0 0.0
2017-Mar-23 17:32N 44°44' E 037°47'0 0.0
2017-Mar-23 16:32N 44°44' E 037°47'0 0.0
2017-Mar-23 15:32N 44°44' E 037°47'0 0.0
2017-Mar-23 14:32N 44°44' E 037°47'0 0.0
2017-Mar-23 13:32N 44°44' E 037°47'0 0.0
2017-Mar-23 12:32N 44°44' E 037°47'0 0.0
2017-Mar-23 11:32N 44°44' E 037°47'0 0.0
2017-Mar-23 10:32N 44°44' E 037°47'0 0.0
2017-Mar-23 09:32N 44°44' E 037°47'0 0.0
2017-Mar-23 08:32N 44°44' E 037°47'0 0.0
2017-Mar-23 07:32N 44°44' E 037°47'0 0.0
2017-Mar-23 06:32N 44°44' E 037°47'0 0.0
2017-Mar-23 05:32N 44°44' E 037°47'0 0.0
2017-Mar-23 04:32N 44°44' E 037°47'0 0.0
2017-Mar-23 03:32N 44°44' E 037°47'0 0.0
2017-Mar-23 02:32N 44°44' E 037°47'0 0.0
2017-Mar-23 01:32N 44°44' E 037°47'0 0.0
2017-Mar-23 00:32N 44°44' E 037°47'0 0.0
2017-Mar-22 23:32N 44°44' E 037°47'0 0.0
2017-Mar-22 22:32N 44°44' E 037°47'0 0.0
2017-Mar-22 21:32N 44°44' E 037°47'0 0.0
2017-Mar-22 20:32N 44°44' E 037°47'0 0.0
2017-Mar-22 19:32N 44°44' E 037°47'0 0.0
2017-Mar-22 18:32N 44°44' E 037°47'0 0.0
2017-Mar-22 17:32N 44°44' E 037°47'0 0.0
2017-Mar-22 16:32N 44°44' E 037°47'0 0.0
2017-Mar-22 15:32N 44°44' E 037°47'0 0.0
2017-Mar-22 14:32N 44°44' E 037°47'0 0.0
2017-Mar-22 13:32N 44°44' E 037°47'0 0.0
2017-Mar-22 12:32N 44°44' E 037°47'0 0.0
2017-Mar-22 11:32N 44°44' E 037°47'0 0.0
2017-Mar-22 10:32N 44°44' E 037°47'0 0.0
2017-Mar-22 09:32N 44°44' E 037°47'0 0.0
2017-Mar-22 08:32N 44°44' E 037°47'0 0.0
2017-Mar-22 07:32N 44°44' E 037°47'0 0.0
2017-Mar-22 06:32N 44°44' E 037°47'0 0.0
2017-Mar-22 05:32N 44°44' E 037°47'0 0.0
2017-Mar-22 04:32N 44°44' E 037°47'0 0.0
2017-Mar-22 03:32N 44°44' E 037°47'0 0.0
2017-Mar-22 02:32N 44°44' E 037°47'0 0.0
2017-Mar-22 01:32N 44°44' E 037°47'0 0.0
2017-Mar-22 00:32N 44°44' E 037°47'0 0.0
2017-Mar-21 23:32N 44°44' E 037°47'0 0.0
2017-Mar-21 22:32N 44°44' E 037°47'0 0.0
2017-Mar-21 21:32N 44°44' E 037°47'0 0.0
2017-Mar-21 20:32N 44°44' E 037°47'0 0.0
2017-Mar-21 19:32N 44°44' E 037°47'0 0.0
2017-Mar-21 18:32N 44°44' E 037°47'0 0.0
2017-Mar-21 17:32N 44°44' E 037°47'0 0.0
2017-Mar-21 16:32N 44°44' E 037°47'0 0.0
2017-Mar-21 15:32N 44°44' E 037°47'0 0.0
2017-Mar-21 14:32N 44°44' E 037°47'0 0.0
2017-Mar-21 13:32N 44°44' E 037°47'0 0.0
2017-Mar-21 08:32N 44°44' E 037°47'0 0.0
2017-Mar-21 07:32N 44°44' E 037°47'0 0.0
2017-Mar-21 06:32N 44°44' E 037°47'0 0.0
2017-Mar-21 05:32N 44°44' E 037°47'0 0.0
2017-Mar-21 04:32N 44°44' E 037°47'0 0.0
2017-Mar-21 03:32N 44°44' E 037°47'0 0.0
2017-Mar-21 02:32N 44°44' E 037°47'0 0.0
2017-Mar-21 01:32N 44°44' E 037°47'0 0.0
2017-Mar-21 00:32N 44°44' E 037°47'0 0.0
2017-Mar-20 23:32N 44°44' E 037°47'0 0.0
2017-Mar-20 22:32N 44°44' E 037°47'2 2.4
2017-Mar-20 21:34N 44°42' E 037°49'5 4.7
2017-Mar-20 20:33N 44°38' E 037°52'3 3.2
2017-Mar-20 19:33N 44°35' E 037°51'6 6.3
2017-Mar-20 18:33N 44°30' E 037°45'4 4.2
2017-Mar-20 17:34N 44°26' E 037°45'3 2.6
2017-Mar-20 16:29N 44°23' E 037°43'2 1.4
2017-Mar-20 15:24N 44°22' E 037°41'1 1.2
2017-Mar-20 14:33N 44°22' E 037°40'1 0.6
2017-Mar-20 13:32N 44°21' E 037°40'1 1.0
2017-Mar-20 12:33N 44°21' E 037°41'1 1.3
2017-Mar-20 11:33N 44°20' E 037°40'1 1.1
2017-Mar-20 10:27N 44°20' E 037°39'3 1.2
2017-Mar-20 08:15N 44°19' E 037°35'6 1.5
2017-Mar-20 04:27N 44°21' E 037°27'4 3.0
2017-Mar-20 03:11N 44°24' E 037°27'1 1.6
2017-Mar-20 02:25N 44°23' E 037°27'2 1.3
2017-Mar-20 01:04N 44°22' E 037°26'1 2.4
2017-Mar-20 00:33N 44°23' E 037°25'5 5.5
2017-Mar-19 23:33N 44°28' E 037°25'1 0.5
2017-Mar-19 21:21N 44°27' E 037°25'2 2.1
2017-Mar-19 20:30N 44°25' E 037°24'2 2.0
2017-Mar-19 19:27N 44°25' E 037°27'4 4.6
2017-Mar-19 18:32N 44°27' E 037°33'2 2.2
2017-Mar-19 17:34N 44°28' E 037°35'5 4.8
2017-Mar-19 16:33N 44°25' E 037°30'1514.3
2017-Mar-19 15:30N 44°18' E 037°12'  
2017-Mar-16 10:34N 37°24' E 025°54'  
Track history (hours):
 
Tides and Currents Weather Stations Pressure Air Temp Water Temp Dewpoint Dewpoint Depression Visibility Wind Speed Wind Dir Waves Ship Positions

Zim Vancouver

Last reported at 2017-Mar-25 13:23 UTC. Time now 2017-Mar-28 14:04 UTC.
Position N 46°14' E 030°55'.

Length 260 m; draft 10.9 m.

Type: Ship. MMSI: 636013214.

Date/timePositionNaut miles runAvg speedWind from/ knotsBaromVisibWave heightAir tempDewpointWater temp
2017-Mar-25 13:23N 46°14' E 030°55'1618.6
2017-Mar-25 12:32N 46°30' E 030°48'2 1.8
2017-Mar-25 11:32N 46°29' E 030°45'0 0.0
2017-Mar-25 10:33N 46°29' E 030°45'0 0.0
2017-Mar-25 09:33N 46°29' E 030°45'0 0.0
2017-Mar-25 08:33N 46°29' E 030°45'0 0.0
2017-Mar-25 07:34N 46°29' E 030°45'0 0.0
2017-Mar-25 06:33N 46°29' E 030°45'0 0.0
2017-Mar-25 05:33N 46°29' E 030°45'0 0.0
2017-Mar-25 04:34N 46°29' E 030°45'0 0.0
2017-Mar-25 03:33N 46°29' E 030°45'0 0.0
2017-Mar-25 02:33N 46°29' E 030°45'0 0.0
2017-Mar-25 01:33N 46°29' E 030°45'0 0.0
2017-Mar-25 00:33N 46°29' E 030°45'0 0.0
2017-Mar-24 23:34N 46°29' E 030°45'0 0.0
2017-Mar-24 22:32N 46°29' E 030°45'0 0.0
2017-Mar-24 21:33N 46°29' E 030°45'0 0.0
2017-Mar-24 20:33N 46°29' E 030°45'0 0.0
2017-Mar-24 19:33N 46°29' E 030°45'0 0.0
2017-Mar-24 18:33N 46°29' E 030°45'0 0.0
2017-Mar-24 17:34N 46°29' E 030°45'3 3.0
2017-Mar-24 16:33N 46°29' E 030°50'0 0.1
2017-Mar-24 15:34N 46°29' E 030°50'1 1.0
2017-Mar-24 14:33N 46°29' E 030°50'5518.5
2017-Mar-24 11:33N 45°45' E 031°40'25518.1
2017-Mar-23 21:27N 44°26' E 037°24'1920.9
2017-Mar-23 20:33N 44°35' E 037°47'8 8.4
2017-Mar-23 19:33N 44°44' E 037°47'0 0.0
2017-Mar-23 18:32N 44°44' E 037°47'0 0.0
2017-Mar-23 17:32N 44°44' E 037°47'0 0.0
2017-Mar-23 16:32N 44°44' E 037°47'0 0.0
2017-Mar-23 15:32N 44°44' E 037°47'0 0.0
2017-Mar-23 14:32N 44°44' E 037°47'0 0.0
2017-Mar-23 13:32N 44°44' E 037°47'0 0.0
2017-Mar-23 12:32N 44°44' E 037°47'0 0.0
2017-Mar-23 11:32N 44°44' E 037°47'0 0.0
2017-Mar-23 10:32N 44°44' E 037°47'0 0.0
2017-Mar-23 09:32N 44°44' E 037°47'0 0.0
2017-Mar-23 08:32N 44°44' E 037°47'0 0.0
2017-Mar-23 07:32N 44°44' E 037°47'0 0.0
2017-Mar-23 06:32N 44°44' E 037°47'0 0.0
2017-Mar-23 05:32N 44°44' E 037°47'0 0.0
2017-Mar-23 04:32N 44°44' E 037°47'0 0.0
2017-Mar-23 03:32N 44°44' E 037°47'0 0.0
2017-Mar-23 02:32N 44°44' E 037°47'0 0.0
2017-Mar-23 01:32N 44°44' E 037°47'0 0.0
2017-Mar-23 00:32N 44°44' E 037°47'0 0.0
2017-Mar-22 23:32N 44°44' E 037°47'0 0.0
2017-Mar-22 22:32N 44°44' E 037°47'0 0.0
2017-Mar-22 21:32N 44°44' E 037°47'0 0.0
2017-Mar-22 20:32N 44°44' E 037°47'0 0.0
2017-Mar-22 19:32N 44°44' E 037°47'0 0.0
2017-Mar-22 18:32N 44°44' E 037°47'0 0.0
2017-Mar-22 17:32N 44°44' E 037°47'0 0.0
2017-Mar-22 16:32N 44°44' E 037°47'0 0.0
2017-Mar-22 15:32N 44°44' E 037°47'0 0.0
2017-Mar-22 14:32N 44°44' E 037°47'0 0.0
2017-Mar-22 13:32N 44°44' E 037°47'0 0.0
2017-Mar-22 12:32N 44°44' E 037°47'0 0.0
2017-Mar-22 11:32N 44°44' E 037°47'0 0.0
2017-Mar-22 10:32N 44°44' E 037°47'0 0.0
2017-Mar-22 09:32N 44°44' E 037°47'0 0.0
2017-Mar-22 08:32N 44°44' E 037°47'0 0.0
2017-Mar-22 07:32N 44°44' E 037°47'0 0.0
2017-Mar-22 06:32N 44°44' E 037°47'0 0.0
2017-Mar-22 05:32N 44°44' E 037°47'0 0.0
2017-Mar-22 04:32N 44°44' E 037°47'0 0.0
2017-Mar-22 03:32N 44°44' E 037°47'0 0.0
2017-Mar-22 02:32N 44°44' E 037°47'0 0.0
2017-Mar-22 01:32N 44°44' E 037°47'0 0.0
2017-Mar-22 00:32N 44°44' E 037°47'0 0.0
2017-Mar-21 23:32N 44°44' E 037°47'0 0.0
2017-Mar-21 22:32N 44°44' E 037°47'0 0.0
2017-Mar-21 21:32N 44°44' E 037°47'0 0.0
2017-Mar-21 20:32N 44°44' E 037°47'0 0.0
2017-Mar-21 19:32N 44°44' E 037°47'0 0.0
2017-Mar-21 18:32N 44°44' E 037°47'0 0.0
2017-Mar-21 17:32N 44°44' E 037°47'0 0.0
2017-Mar-21 16:32N 44°44' E 037°47'0 0.0
2017-Mar-21 15:32N 44°44' E 037°47'0 0.0
2017-Mar-21 14:32N 44°44' E 037°47'0 0.0
2017-Mar-21 13:32N 44°44' E 037°47'0 0.0
2017-Mar-21 08:32N 44°44' E 037°47'0 0.0
2017-Mar-21 07:32N 44°44' E 037°47'0 0.0
2017-Mar-21 06:32N 44°44' E 037°47'0 0.0
2017-Mar-21 05:32N 44°44' E 037°47'0 0.0
2017-Mar-21 04:32N 44°44' E 037°47'0 0.0
2017-Mar-21 03:32N 44°44' E 037°47'0 0.0
2017-Mar-21 02:32N 44°44' E 037°47'0 0.0
2017-Mar-21 01:32N 44°44' E 037°47'0 0.0
2017-Mar-21 00:32N 44°44' E 037°47'0 0.0
2017-Mar-20 23:32N 44°44' E 037°47'0 0.0
2017-Mar-20 22:32N 44°44' E 037°47'2 2.4
2017-Mar-20 21:34N 44°42' E 037°49'5 4.7
2017-Mar-20 20:33N 44°38' E 037°52'3 3.2
2017-Mar-20 19:33N 44°35' E 037°51'6 6.3
2017-Mar-20 18:33N 44°30' E 037°45'4 4.2
2017-Mar-20 17:34N 44°26' E 037°45'3 2.6
2017-Mar-20 16:29N 44°23' E 037°43'2 1.4
2017-Mar-20 15:24N 44°22' E 037°41'1 1.2
2017-Mar-20 14:33N 44°22' E 037°40'1 0.6
2017-Mar-20 13:32N 44°21' E 037°40'1 1.0
2017-Mar-20 12:33N 44°21' E 037°41'1 1.3
2017-Mar-20 11:33N 44°20' E 037°40'1 1.1
2017-Mar-20 10:27N 44°20' E 037°39'3 1.2
2017-Mar-20 08:15N 44°19' E 037°35'6 1.5
2017-Mar-20 04:27N 44°21' E 037°27'4 3.0
2017-Mar-20 03:11N 44°24' E 037°27'1 1.6
2017-Mar-20 02:25N 44°23' E 037°27'2 1.3
2017-Mar-20 01:04N 44°22' E 037°26'1 2.4
2017-Mar-20 00:33N 44°23' E 037°25'5 5.5
2017-Mar-19 23:33N 44°28' E 037°25'1 0.5
2017-Mar-19 21:21N 44°27' E 037°25'2 2.1
2017-Mar-19 20:30N 44°25' E 037°24'2 2.0
2017-Mar-19 19:27N 44°25' E 037°27'4 4.6
2017-Mar-19 18:32N 44°27' E 037°33'2 2.2
2017-Mar-19 17:34N 44°28' E 037°35'5 4.8
2017-Mar-19 16:33N 44°25' E 037°30'1514.3
2017-Mar-19 15:30N 44°18' E 037°12'  
2017-Mar-16 10:34N 37°24' E 025°54'  

Dump ship's entire track history